createdAt,value
2023-05-17T00:00:09.717Z,9.80
2023-05-17T00:00:37.966Z,9.43
2023-05-17T00:01:02.859Z,9.40
2023-05-17T00:01:15.368Z,9.60
2023-05-17T00:01:28.130Z,9.55
2023-05-17T00:01:40.708Z,9.32
2023-05-17T00:01:56.099Z,9.50
2023-05-17T00:02:08.747Z,9.77
2023-05-17T00:02:21.373Z,9.57
2023-05-17T00:02:34.018Z,9.38
2023-05-17T00:02:46.672Z,9.20
2023-05-17T00:02:59.395Z,9.35
2023-05-17T00:03:12.195Z,9.43
2023-05-17T00:03:25.842Z,9.13
2023-05-17T00:03:38.431Z,9.15
2023-05-17T00:03:54.286Z,8.88
2023-05-17T00:04:06.936Z,9.07
2023-05-17T00:04:20.938Z,9.20
2023-05-17T00:04:33.818Z,9.07
2023-05-17T00:04:47.540Z,9.43
2023-05-17T00:05:00.223Z,9.40
2023-05-17T00:05:13.096Z,9.07
2023-05-17T00:05:25.838Z,9.05
2023-05-17T00:05:38.581Z,9.23
2023-05-17T00:05:51.370Z,9.00
2023-05-17T00:06:05.234Z,8.77
2023-05-17T00:06:17.815Z,8.55
2023-05-17T00:06:31.864Z,8.80
2023-05-17T00:06:44.623Z,9.10
2023-05-17T00:06:57.168Z,8.88
2023-05-17T00:07:09.674Z,8.50
2023-05-17T00:07:22.207Z,8.32
2023-05-17T00:07:34.764Z,8.35
2023-05-17T00:07:48.452Z,8.57
2023-05-17T00:08:01.974Z,8.50
2023-05-17T00:08:14.556Z,8.60
2023-05-17T00:08:27.123Z,9.02
2023-05-17T00:08:39.676Z,9.00
2023-05-17T00:08:52.539Z,8.82
2023-05-17T00:09:05.118Z,8.82
2023-05-17T00:09:17.707Z,9.10
2023-05-17T00:09:31.292Z,9.07
2023-05-17T00:09:44.003Z,8.68
2023-05-17T00:09:56.589Z,8.82
2023-05-17T00:10:09.572Z,8.90
2023-05-17T00:10:22.251Z,8.80
2023-05-17T00:10:35.037Z,8.75
2023-05-17T00:10:48.659Z,8.50
2023-05-17T00:11:01.214Z,8.60
2023-05-17T00:11:13.960Z,8.55
2023-05-17T00:11:26.568Z,8.77
2023-05-17T00:11:39.148Z,8.93
2023-05-17T00:11:51.746Z,9.10
2023-05-17T00:12:05.057Z,8.88
2023-05-17T00:12:18.672Z,8.70
2023-05-17T00:12:31.468Z,8.52
2023-05-17T00:12:44.010Z,8.80
2023-05-17T00:12:56.572Z,8.88
2023-05-17T00:13:09.152Z,8.68
2023-05-17T00:13:21.721Z,9.18
2023-05-17T00:13:34.228Z,9.60
2023-05-17T00:13:46.990Z,9.35
2023-05-17T00:14:00.597Z,9.30
2023-05-17T00:14:13.208Z,9.10
2023-05-17T00:14:25.771Z,8.98
2023-05-17T00:14:38.307Z,8.75
2023-05-17T00:14:51.002Z,8.88
2023-05-17T00:15:03.989Z,8.82
2023-05-17T00:15:16.621Z,9.60
2023-05-17T00:15:30.201Z,9.30
2023-05-17T00:15:42.724Z,9.15
2023-05-17T00:15:55.340Z,9.15
2023-05-17T00:16:09.062Z,8.82
2023-05-17T00:16:21.606Z,8.68
2023-05-17T00:16:34.298Z,8.85
2023-05-17T00:16:46.957Z,8.90
2023-05-17T00:16:59.565Z,8.90
2023-05-17T00:17:13.075Z,8.75
2023-05-17T00:17:26.011Z,8.80
2023-05-17T00:17:39.012Z,8.73
2023-05-17T00:17:51.852Z,8.65
2023-05-17T00:18:04.597Z,8.70
2023-05-17T00:18:17.417Z,8.75
2023-05-17T00:18:31.514Z,8.75
2023-05-17T00:18:44.355Z,8.90
2023-05-17T00:18:57.179Z,8.80
2023-05-17T00:19:10.102Z,9.00
2023-05-17T00:19:24.224Z,8.82
2023-05-17T00:19:36.829Z,8.55
2023-05-17T00:19:49.946Z,9.10
2023-05-17T00:20:03.635Z,9.25
2023-05-17T00:20:16.404Z,9.00
2023-05-17T00:20:29.442Z,9.05
2023-05-17T00:20:42.026Z,8.70
2023-05-17T00:20:54.597Z,8.90
2023-05-17T00:21:07.159Z,8.98
2023-05-17T00:21:19.776Z,9.25
2023-05-17T00:21:32.431Z,9.00
2023-05-17T00:21:46.103Z,8.80
2023-05-17T00:21:58.699Z,8.70
2023-05-17T00:22:11.216Z,8.93
2023-05-17T00:22:23.744Z,8.98
2023-05-17T00:22:36.539Z,8.73
2023-05-17T00:22:49.119Z,8.52
2023-05-17T00:23:03.112Z,8.77
2023-05-17T00:23:15.716Z,8.80
2023-05-17T00:23:28.812Z,8.95
2023-05-17T00:23:41.363Z,9.05
2023-05-17T00:23:53.915Z,9.13
2023-05-17T00:24:06.956Z,8.90
2023-05-17T00:24:19.530Z,8.60
2023-05-17T00:24:33.308Z,8.95
2023-05-17T00:24:45.898Z,9.23
2023-05-17T00:24:58.420Z,8.98
2023-05-17T00:25:11.024Z,9.25
2023-05-17T00:25:23.657Z,9.00
2023-05-17T00:25:36.197Z,8.93
2023-05-17T00:25:48.784Z,8.88
2023-05-17T00:26:02.290Z,8.88
2023-05-17T00:26:14.866Z,8.77
2023-05-17T00:26:27.656Z,8.70
2023-05-17T00:26:40.183Z,8.80
2023-05-17T00:26:54.539Z,8.75
2023-05-17T00:27:07.258Z,8.77
2023-05-17T00:27:20.063Z,8.50
2023-05-17T00:27:33.572Z,8.48
2023-05-17T00:27:46.100Z,8.50
2023-05-17T00:27:58.654Z,8.45
2023-05-17T00:28:11.216Z,8.40
2023-05-17T00:28:23.850Z,8.50
2023-05-17T00:28:36.398Z,8.50
2023-05-17T00:28:48.947Z,8.57
2023-05-17T00:29:02.591Z,8.55
2023-05-17T00:29:15.234Z,8.38
2023-05-17T00:29:27.940Z,8.43
2023-05-17T00:29:40.515Z,8.95
2023-05-17T00:29:53.138Z,8.93
2023-05-17T00:30:07.744Z,8.93
2023-05-17T00:30:20.715Z,8.75
2023-05-17T00:30:33.400Z,8.70
2023-05-17T00:30:46.912Z,8.90
2023-05-17T00:30:59.745Z,9.00
2023-05-17T00:31:12.322Z,8.85
2023-05-17T00:31:24.929Z,8.57
2023-05-17T00:31:37.484Z,8.27
2023-05-17T00:31:50.188Z,8.07
2023-05-17T00:32:02.770Z,8.20
2023-05-17T00:32:15.319Z,8.35
2023-05-17T00:32:28.843Z,8.77
2023-05-17T00:32:41.508Z,9.02
2023-05-17T00:32:54.184Z,9.10
2023-05-17T00:33:06.860Z,8.90
2023-05-17T00:33:19.493Z,8.90
2023-05-17T00:33:32.032Z,8.93
2023-05-17T00:33:46.564Z,8.63
2023-05-17T00:33:59.161Z,8.63
2023-05-17T00:34:11.740Z,8.63
2023-05-17T00:34:25.712Z,8.35
2023-05-17T00:34:38.317Z,8.52
2023-05-17T00:34:51.195Z,8.73
2023-05-17T00:35:04.413Z,8.70
2023-05-17T00:35:18.084Z,8.75
2023-05-17T00:35:30.807Z,8.88
2023-05-17T00:35:43.510Z,9.07
2023-05-17T00:35:56.051Z,8.68
2023-05-17T00:36:08.973Z,8.68
2023-05-17T00:36:21.540Z,8.95
2023-05-17T00:36:34.097Z,8.73
2023-05-17T00:36:47.651Z,8.80
2023-05-17T00:37:00.372Z,8.93
2023-05-17T00:37:13.067Z,8.93
2023-05-17T00:37:25.714Z,8.75
2023-05-17T00:37:38.338Z,8.68
2023-05-17T00:37:50.846Z,8.70
2023-05-17T00:38:03.360Z,8.88
2023-05-17T00:38:16.914Z,8.82
2023-05-17T00:38:29.821Z,8.68
2023-05-17T00:38:42.419Z,8.90
2023-05-17T00:38:55.003Z,9.00
2023-05-17T00:39:07.615Z,8.80
2023-05-17T00:39:20.364Z,8.88
2023-05-17T00:39:32.967Z,8.77
2023-05-17T00:39:46.564Z,8.82
2023-05-17T00:39:59.149Z,8.85
2023-05-17T00:40:13.512Z,9.02
2023-05-17T00:40:26.139Z,9.07
2023-05-17T00:40:38.685Z,8.73
2023-05-17T00:40:51.338Z,8.63
2023-05-17T00:41:03.895Z,8.32
2023-05-17T00:41:17.474Z,8.48
2023-05-17T00:41:31.084Z,8.90
2023-05-17T00:41:43.812Z,8.88
2023-05-17T00:41:56.508Z,8.73
2023-05-17T00:42:10.538Z,8.50
2023-05-17T00:42:23.389Z,8.35
2023-05-17T00:42:35.949Z,8.68
2023-05-17T00:42:48.509Z,8.68
2023-05-17T00:43:02.146Z,8.93
2023-05-17T00:43:14.696Z,9.18
2023-05-17T00:43:27.903Z,8.93
2023-05-17T00:43:40.714Z,8.80
2023-05-17T00:43:53.286Z,8.70
2023-05-17T00:44:05.972Z,8.80
2023-05-17T00:44:19.519Z,8.80
2023-05-17T00:44:32.058Z,8.77
2023-05-17T00:44:44.829Z,8.80
2023-05-17T00:44:57.431Z,8.45
2023-05-17T00:45:10.870Z,8.48
2023-05-17T00:45:23.654Z,9.00
2023-05-17T00:45:37.223Z,8.85
2023-05-17T00:45:50.370Z,8.55
2023-05-17T00:46:03.180Z,8.63
2023-05-17T00:46:16.204Z,9.10
2023-05-17T00:46:28.844Z,9.10
2023-05-17T00:46:41.854Z,8.85
2023-05-17T00:46:55.462Z,8.52
2023-05-17T00:47:08.066Z,8.45
2023-05-17T00:47:20.681Z,8.68
2023-05-17T00:47:33.369Z,8.88
2023-05-17T00:47:46.097Z,8.80
2023-05-17T00:47:58.971Z,8.48
2023-05-17T00:48:11.967Z,8.88
2023-05-17T00:48:25.811Z,9.23
2023-05-17T00:48:39.215Z,8.85
2023-05-17T00:48:52.877Z,8.55
2023-05-17T00:49:05.730Z,8.55
2023-05-17T00:49:19.222Z,8.32
2023-05-17T00:49:33.749Z,8.30
2023-05-17T00:49:46.931Z,8.43
2023-05-17T00:49:59.671Z,8.40
2023-05-17T00:50:13.416Z,8.52
2023-05-17T00:50:26.073Z,8.82
2023-05-17T00:50:38.754Z,8.73
2023-05-17T00:50:52.079Z,8.68
2023-05-17T00:51:04.798Z,8.65
2023-05-17T00:51:19.832Z,8.80
2023-05-17T00:51:34.490Z,8.82
2023-05-17T00:51:47.258Z,8.77
2023-05-17T00:52:00.305Z,9.00
2023-05-17T00:52:12.953Z,9.00
2023-05-17T00:52:25.667Z,8.48
2023-05-17T00:52:38.856Z,8.48
2023-05-17T00:52:51.717Z,8.50
2023-05-17T00:53:04.313Z,8.55
2023-05-17T00:53:18.603Z,8.63
2023-05-17T00:53:31.316Z,8.68
2023-05-17T00:53:43.982Z,8.80
2023-05-17T00:53:56.768Z,9.10
2023-05-17T00:54:09.432Z,9.15
2023-05-17T00:54:22.623Z,9.20
2023-05-17T00:54:35.456Z,9.13
2023-05-17T00:54:48.341Z,8.80
2023-05-17T00:55:01.004Z,8.80
2023-05-17T00:55:14.608Z,9.00
2023-05-17T00:55:28.379Z,8.77
2023-05-17T00:55:41.237Z,8.57
2023-05-17T00:55:54.976Z,8.70
2023-05-17T00:56:07.946Z,8.80
2023-05-17T00:56:20.689Z,8.98
2023-05-17T00:56:33.390Z,9.07
2023-05-17T00:56:47.172Z,9.10
2023-05-17T00:57:01.354Z,9.20
2023-05-17T00:57:14.825Z,9.20
2023-05-17T00:57:29.196Z,9.35
2023-05-17T00:57:41.838Z,8.90
2023-05-17T00:57:54.617Z,9.02
2023-05-17T00:58:08.217Z,9.00
2023-05-17T00:58:20.912Z,9.10
2023-05-17T00:58:34.000Z,9.32
2023-05-17T00:58:46.807Z,9.48
2023-05-17T00:59:00.405Z,9.38
2023-05-17T00:59:15.335Z,9.57
2023-05-17T00:59:29.549Z,9.52
2023-05-17T00:59:43.952Z,9.55
2023-05-17T00:59:56.828Z,9.57
2023-05-17T01:00:10.399Z,9.52
2023-05-17T01:00:23.315Z,9.57
2023-05-17T01:00:36.368Z,9.68
2023-05-17T01:00:51.417Z,9.30
2023-05-17T01:01:04.166Z,9.15
2023-05-17T01:01:20.335Z,9.18
2023-05-17T01:01:34.027Z,9.30
2023-05-17T01:01:47.621Z,9.32
2023-05-17T01:02:00.824Z,9.30
2023-05-17T01:02:14.376Z,9.65
2023-05-17T01:02:27.070Z,9.57
2023-05-17T01:02:39.685Z,9.45
2023-05-17T01:02:52.435Z,9.65
2023-05-17T01:03:05.249Z,9.65
2023-05-17T01:03:18.098Z,9.60
2023-05-17T01:03:30.803Z,9.63
2023-05-17T01:03:44.600Z,10.00
2023-05-17T01:03:57.544Z,9.98
2023-05-17T01:04:10.753Z,9.48
2023-05-17T01:04:24.672Z,9.45
2023-05-17T01:04:38.930Z,9.70
2023-05-17T01:04:51.847Z,9.70
2023-05-17T01:05:05.165Z,9.73
2023-05-17T01:05:18.947Z,9.82
2023-05-17T01:05:31.774Z,9.73
2023-05-17T01:05:44.869Z,9.63
2023-05-17T01:05:57.455Z,10.00
2023-05-17T01:06:10.046Z,9.88
2023-05-17T01:06:22.678Z,9.45
2023-05-17T01:06:35.765Z,9.40
2023-05-17T01:06:50.239Z,9.38
2023-05-17T01:07:03.365Z,9.40
2023-05-17T01:07:16.198Z,9.50
2023-05-17T01:07:28.836Z,9.80
2023-05-17T01:07:41.520Z,9.88
2023-05-17T01:07:54.348Z,10.00
2023-05-17T01:08:06.894Z,10.20
2023-05-17T01:08:19.428Z,9.88
2023-05-17T01:08:33.590Z,10.23
2023-05-17T01:08:46.244Z,10.55
2023-05-17T01:08:58.875Z,10.30
2023-05-17T01:09:11.651Z,10.02
2023-05-17T01:09:24.353Z,10.13
2023-05-17T01:09:37.373Z,10.40
2023-05-17T01:09:51.031Z,10.40
2023-05-17T01:10:03.876Z,10.30
2023-05-17T01:10:16.513Z,10.30
2023-05-17T01:10:39.051Z,10.32
2023-05-17T01:10:57.223Z,9.98
2023-05-17T01:11:19.631Z,9.77
2023-05-17T01:11:39.879Z,10.15
2023-05-17T01:12:02.755Z,10.13
2023-05-17T01:12:24.647Z,10.15
2023-05-17T01:12:51.364Z,10.30
2023-05-17T01:13:10.216Z,10.65
2023-05-17T01:13:28.020Z,10.50
2023-05-17T01:13:48.965Z,10.20
2023-05-17T01:14:09.665Z,10.15
2023-05-17T01:14:39.442Z,10.25
2023-05-17T01:15:03.497Z,10.35
2023-05-17T01:15:19.789Z,10.15
2023-05-17T01:15:34.971Z,10.38
2023-05-17T01:15:53.977Z,10.35
2023-05-17T01:16:16.004Z,10.07
2023-05-17T01:16:33.590Z,10.73
2023-05-17T01:16:55.949Z,10.40
2023-05-17T01:17:14.652Z,9.98
2023-05-17T01:17:36.400Z,9.73
2023-05-17T01:17:55.626Z,10.40
2023-05-17T01:18:16.731Z,10.30
2023-05-17T01:18:38.811Z,9.85
2023-05-17T01:18:57.198Z,9.70
2023-05-17T01:19:22.380Z,9.95
2023-05-17T01:19:58.909Z,10.07
2023-05-17T01:20:18.620Z,10.00
2023-05-17T01:20:36.388Z,10.50
2023-05-17T01:20:51.160Z,10.68
2023-05-17T01:21:18.674Z,10.60
2023-05-17T01:21:48.717Z,10.35
2023-05-17T01:22:17.718Z,10.52
2023-05-17T01:22:40.061Z,10.15
2023-05-17T01:23:11.294Z,10.57
2023-05-17T01:23:31.588Z,10.32
2023-05-17T01:23:59.472Z,10.18
2023-05-17T01:24:26.317Z,10.30
2023-05-17T01:24:47.386Z,10.18
2023-05-17T01:25:12.358Z,9.95
2023-05-17T01:25:35.143Z,10.65
2023-05-17T01:25:55.713Z,10.57
2023-05-17T01:26:14.076Z,10.45
2023-05-17T01:26:38.339Z,10.65
2023-05-17T01:26:54.168Z,11.07
2023-05-17T01:27:09.273Z,10.98
2023-05-17T01:27:22.249Z,11.05
2023-05-17T01:27:37.936Z,10.65
2023-05-17T01:27:52.109Z,10.65
2023-05-17T01:28:06.316Z,10.75
2023-05-17T01:28:22.410Z,10.43
2023-05-17T01:28:37.457Z,10.82
2023-05-17T01:28:55.369Z,10.88
2023-05-17T01:29:09.650Z,10.20
2023-05-17T01:29:25.894Z,9.95
2023-05-17T01:29:40.216Z,10.43
2023-05-17T01:29:56.417Z,10.27
2023-05-17T01:30:13.666Z,9.88
2023-05-17T01:30:26.841Z,10.50
2023-05-17T01:30:41.849Z,10.45
2023-05-17T01:30:56.045Z,10.60
2023-05-17T01:31:10.666Z,10.95
2023-05-17T01:31:24.955Z,11.30
2023-05-17T01:31:39.915Z,11.30
2023-05-17T01:31:53.770Z,10.68
2023-05-17T01:32:08.584Z,10.68
2023-05-17T01:32:22.004Z,10.98
2023-05-17T01:32:34.823Z,11.02
2023-05-17T01:32:47.478Z,10.80
2023-05-17T01:33:03.632Z,10.85
2023-05-17T01:33:17.170Z,11.13
2023-05-17T01:33:30.283Z,11.40
2023-05-17T01:33:44.037Z,11.15
2023-05-17T01:33:58.770Z,10.95
2023-05-17T01:34:11.580Z,10.95
2023-05-17T01:34:27.916Z,10.52
2023-05-17T01:34:42.882Z,10.98
2023-05-17T01:34:55.466Z,11.30
2023-05-17T01:35:09.439Z,10.90
2023-05-17T01:35:22.011Z,11.00
2023-05-17T01:35:34.566Z,10.70
2023-05-17T01:35:47.120Z,10.98
2023-05-17T01:36:00.979Z,11.52
2023-05-17T01:36:13.595Z,11.70
2023-05-17T01:36:26.794Z,11.63
2023-05-17T01:36:39.333Z,11.50
2023-05-17T01:36:52.271Z,11.18
2023-05-17T01:37:05.268Z,11.65
2023-05-17T01:37:17.936Z,11.75
2023-05-17T01:37:30.663Z,11.35
2023-05-17T01:37:43.307Z,11.13
2023-05-17T01:37:56.955Z,11.57
2023-05-17T01:38:09.678Z,11.90
2023-05-17T01:38:22.408Z,11.98
2023-05-17T01:38:35.029Z,12.02
2023-05-17T01:38:47.605Z,12.13
2023-05-17T01:39:01.573Z,12.43
2023-05-17T01:39:14.198Z,12.18
2023-05-17T01:39:28.540Z,12.07
2023-05-17T01:39:41.643Z,12.32
2023-05-17T01:39:54.212Z,12.18
2023-05-17T01:40:08.935Z,12.00
2023-05-17T01:40:22.228Z,11.73
2023-05-17T01:40:39.602Z,11.60
2023-05-17T01:40:57.205Z,11.85
2023-05-17T01:41:16.237Z,12.10
2023-05-17T01:41:33.725Z,11.88
2023-05-17T01:41:56.305Z,11.85
2023-05-17T01:42:18.601Z,12.40
2023-05-17T01:42:32.970Z,12.20
2023-05-17T01:42:49.812Z,11.88
2023-05-17T01:43:10.270Z,12.05
2023-05-17T01:43:27.860Z,12.18
2023-05-17T01:43:47.537Z,11.85
2023-05-17T01:44:07.930Z,12.50
2023-05-17T01:44:33.032Z,12.18
2023-05-17T01:44:52.031Z,12.50
2023-05-17T01:45:08.870Z,12.25
2023-05-17T01:45:27.659Z,12.05
2023-05-17T01:45:44.362Z,12.43
2023-05-17T01:46:03.922Z,12.27
2023-05-17T01:46:24.709Z,12.07
2023-05-17T01:46:40.100Z,12.18
2023-05-17T01:46:57.734Z,12.05
2023-05-17T01:47:16.326Z,12.15
2023-05-17T01:47:36.829Z,12.13
2023-05-17T01:48:00.572Z,12.05
2023-05-17T01:48:21.030Z,12.13
2023-05-17T01:48:39.906Z,12.35
2023-05-17T01:48:59.810Z,11.52
2023-05-17T01:49:18.648Z,12.10
2023-05-17T01:49:35.232Z,12.02
2023-05-17T01:49:54.162Z,11.40
2023-05-17T01:50:08.186Z,11.50
2023-05-17T01:50:24.903Z,11.50
2023-05-17T01:50:39.933Z,12.15
2023-05-17T01:50:56.140Z,12.27
2023-05-17T01:51:12.862Z,11.95
2023-05-17T01:51:29.210Z,11.88
2023-05-17T01:51:47.748Z,11.45
2023-05-17T01:52:07.959Z,11.45
2023-05-17T01:52:28.535Z,12.00
2023-05-17T01:52:49.807Z,11.75
2023-05-17T01:53:08.795Z,11.65
2023-05-17T01:53:26.163Z,11.30
2023-05-17T01:53:46.148Z,11.20
2023-05-17T01:54:04.167Z,11.50
2023-05-17T01:54:23.824Z,11.73
2023-05-17T01:54:39.370Z,12.02
2023-05-17T01:55:01.227Z,11.73
2023-05-17T01:55:23.212Z,11.93
2023-05-17T01:55:43.188Z,12.02
2023-05-17T01:56:01.312Z,11.65
2023-05-17T01:56:20.979Z,11.80
2023-05-17T01:56:35.389Z,12.20
2023-05-17T01:56:56.828Z,12.10
2023-05-17T01:57:11.706Z,12.32
2023-05-17T01:57:29.568Z,12.43
2023-05-17T01:57:44.995Z,11.95
2023-05-17T01:58:00.248Z,12.02
2023-05-17T01:58:13.254Z,11.65
2023-05-17T01:58:26.645Z,11.43
2023-05-17T01:58:46.541Z,11.68
2023-05-17T01:59:03.019Z,12.00
2023-05-17T01:59:19.827Z,12.23
2023-05-17T01:59:35.184Z,12.15
2023-05-17T01:59:50.964Z,11.82
2023-05-17T02:00:07.095Z,12.00
2023-05-17T02:00:21.587Z,12.02
2023-05-17T02:00:35.142Z,11.63
2023-05-17T02:00:49.967Z,11.45
2023-05-17T02:01:04.179Z,11.63
2023-05-17T02:01:18.670Z,12.07
2023-05-17T02:01:33.951Z,12.02
2023-05-17T02:01:48.725Z,11.70
2023-05-17T02:02:06.230Z,11.60
2023-05-17T02:02:18.878Z,11.73
2023-05-17T02:02:31.606Z,11.98
2023-05-17T02:02:45.438Z,11.93
2023-05-17T02:02:58.208Z,12.02
2023-05-17T02:03:13.401Z,12.13
2023-05-17T02:03:29.442Z,11.88
2023-05-17T02:03:42.197Z,12.13
2023-05-17T02:03:54.844Z,12.20
2023-05-17T02:04:07.540Z,11.88
2023-05-17T02:04:20.867Z,11.73
2023-05-17T02:04:33.697Z,11.70
2023-05-17T02:04:47.263Z,11.63
2023-05-17T02:04:59.858Z,11.80
2023-05-17T02:05:12.647Z,11.73
2023-05-17T02:05:25.299Z,11.52
2023-05-17T02:05:37.854Z,11.70
2023-05-17T02:05:50.404Z,11.73
2023-05-17T02:06:02.998Z,11.85
2023-05-17T02:06:15.737Z,11.77
2023-05-17T02:06:29.329Z,11.85
2023-05-17T02:06:42.113Z,12.23
2023-05-17T02:06:54.621Z,11.95
2023-05-17T02:07:07.191Z,11.68
2023-05-17T02:07:19.721Z,11.50
2023-05-17T02:07:32.266Z,11.57
2023-05-17T02:07:44.854Z,11.73
2023-05-17T02:07:58.388Z,12.15
2023-05-17T02:08:10.965Z,11.95
2023-05-17T02:08:23.522Z,11.48
2023-05-17T02:08:36.079Z,11.32
2023-05-17T02:08:48.664Z,11.25
2023-05-17T02:09:02.898Z,11.68
2023-05-17T02:09:15.648Z,11.52
2023-05-17T02:09:28.368Z,11.77
2023-05-17T02:09:40.954Z,11.98
2023-05-17T02:09:54.525Z,11.82
2023-05-17T02:10:08.054Z,12.05
2023-05-17T02:10:20.976Z,12.35
2023-05-17T02:10:33.569Z,12.02
2023-05-17T02:10:46.152Z,11.80
2023-05-17T02:10:58.770Z,11.50
2023-05-17T02:11:11.324Z,11.60
2023-05-17T02:11:23.964Z,11.93
2023-05-17T02:11:37.941Z,11.95
2023-05-17T02:11:51.875Z,12.10
2023-05-17T02:12:04.962Z,12.32
2023-05-17T02:12:17.527Z,11.75
2023-05-17T02:12:30.156Z,11.60
2023-05-17T02:12:43.227Z,11.70
2023-05-17T02:12:56.826Z,12.00
2023-05-17T02:13:09.481Z,11.75
2023-05-17T02:13:22.030Z,11.55
2023-05-17T02:13:34.618Z,11.70
2023-05-17T02:13:47.200Z,11.93
2023-05-17T02:14:00.012Z,11.85
2023-05-17T02:14:12.767Z,11.75
2023-05-17T02:14:26.344Z,11.70
2023-05-17T02:14:38.900Z,11.77
2023-05-17T02:14:51.443Z,11.80
2023-05-17T02:15:04.768Z,12.02
2023-05-17T02:15:17.500Z,12.20
2023-05-17T02:15:30.580Z,12.20
2023-05-17T02:15:44.344Z,11.73
2023-05-17T02:16:00.541Z,11.90
2023-05-17T02:16:13.085Z,12.00
2023-05-17T02:16:25.759Z,12.00
2023-05-17T02:16:38.351Z,11.95
2023-05-17T02:16:50.960Z,11.93
2023-05-17T02:17:06.008Z,11.63
2023-05-17T02:17:18.688Z,11.85
2023-05-17T02:17:31.307Z,11.95
2023-05-17T02:17:44.759Z,11.88
2023-05-17T02:17:57.486Z,11.80
2023-05-17T02:18:11.802Z,11.63
2023-05-17T02:18:24.938Z,11.77
2023-05-17T02:18:38.157Z,11.93
2023-05-17T02:18:51.964Z,12.18
2023-05-17T02:19:04.574Z,11.93
2023-05-17T02:19:17.300Z,11.77
2023-05-17T02:19:29.986Z,12.00
2023-05-17T02:19:42.528Z,11.70
2023-05-17T02:19:55.079Z,11.60
2023-05-17T02:20:11.835Z,11.68
2023-05-17T02:20:24.887Z,12.20
2023-05-17T02:20:37.521Z,12.10
2023-05-17T02:20:50.101Z,12.20
2023-05-17T02:21:02.716Z,12.02
2023-05-17T02:21:16.370Z,12.23
2023-05-17T02:21:29.162Z,12.07
2023-05-17T02:21:42.696Z,11.82
2023-05-17T02:21:55.444Z,11.98
2023-05-17T02:22:08.201Z,11.90
2023-05-17T02:22:20.783Z,11.82
2023-05-17T02:22:33.298Z,12.00
2023-05-17T02:22:45.894Z,12.52
2023-05-17T02:22:58.490Z,12.25
2023-05-17T02:23:12.057Z,11.70
2023-05-17T02:23:25.154Z,11.65
2023-05-17T02:23:38.025Z,12.02
2023-05-17T02:23:51.171Z,12.20
2023-05-17T02:24:04.209Z,12.20
2023-05-17T02:24:16.819Z,12.05
2023-05-17T02:24:29.374Z,12.13
2023-05-17T02:24:43.021Z,11.70
2023-05-17T02:24:55.897Z,11.60
2023-05-17T02:25:09.336Z,11.57
2023-05-17T02:25:22.165Z,11.75
2023-05-17T02:25:34.715Z,12.10
2023-05-17T02:25:47.292Z,12.23
2023-05-17T02:25:59.854Z,12.00
2023-05-17T02:26:13.368Z,12.05
2023-05-17T02:26:26.087Z,11.88
2023-05-17T02:26:38.670Z,11.85
2023-05-17T02:26:52.643Z,12.02
2023-05-17T02:27:05.809Z,12.18
2023-05-17T02:27:18.369Z,12.00
2023-05-17T02:27:30.956Z,11.80
2023-05-17T02:27:43.489Z,12.05
2023-05-17T02:27:57.144Z,11.70
2023-05-17T02:28:09.696Z,11.68
2023-05-17T02:28:22.356Z,11.80
2023-05-17T02:28:34.924Z,11.73
2023-05-17T02:28:47.487Z,12.00
2023-05-17T02:29:00.555Z,11.90
2023-05-17T02:29:13.218Z,11.85
2023-05-17T02:29:26.803Z,12.23
2023-05-17T02:29:39.368Z,12.20
2023-05-17T02:29:51.881Z,12.10
2023-05-17T02:30:05.394Z,11.85
2023-05-17T02:30:18.438Z,11.63
2023-05-17T02:30:31.207Z,12.25
2023-05-17T02:30:44.520Z,12.32
2023-05-17T02:30:58.078Z,12.02
2023-05-17T02:31:10.828Z,11.70
2023-05-17T02:31:24.931Z,11.88
2023-05-17T02:31:37.498Z,12.30
2023-05-17T02:31:50.096Z,12.10
2023-05-17T02:32:02.682Z,11.85
2023-05-17T02:32:15.279Z,11.95
2023-05-17T02:32:29.123Z,11.90
2023-05-17T02:32:41.834Z,12.05
2023-05-17T02:32:56.719Z,12.23
2023-05-17T02:33:09.530Z,12.15
2023-05-17T02:33:22.290Z,12.18
2023-05-17T02:33:35.487Z,12.30
2023-05-17T02:33:48.197Z,12.27
2023-05-17T02:34:01.822Z,11.80
2023-05-17T02:34:14.380Z,11.95
2023-05-17T02:34:26.993Z,12.00
2023-05-17T02:34:39.566Z,12.02
2023-05-17T02:34:52.131Z,11.82
2023-05-17T02:35:05.492Z,11.65
2023-05-17T02:35:19.165Z,11.48
2023-05-17T02:35:31.868Z,11.90
2023-05-17T02:35:44.483Z,12.07
2023-05-17T02:35:57.029Z,11.73
2023-05-17T02:36:09.717Z,12.27
2023-05-17T02:36:22.327Z,12.40
2023-05-17T02:36:35.270Z,12.55
2023-05-17T02:36:48.801Z,12.70
2023-05-17T02:37:01.378Z,12.32
2023-05-17T02:37:14.003Z,11.68
2023-05-17T02:37:26.690Z,11.80
2023-05-17T02:37:39.290Z,11.88
2023-05-17T02:37:52.152Z,11.85
2023-05-17T02:38:05.699Z,12.27
2023-05-17T02:38:18.288Z,12.57
2023-05-17T02:38:31.043Z,12.15
2023-05-17T02:38:43.607Z,11.95
2023-05-17T02:38:56.136Z,11.90
2023-05-17T02:39:08.710Z,11.85
2023-05-17T02:39:21.386Z,11.73
2023-05-17T02:39:35.095Z,11.73
2023-05-17T02:39:47.694Z,11.85
2023-05-17T02:40:00.238Z,12.00
2023-05-17T02:40:13.597Z,11.98
2023-05-17T02:40:26.484Z,11.68
2023-05-17T02:40:41.292Z,11.55
2023-05-17T02:40:54.208Z,11.60
2023-05-17T02:41:06.738Z,11.68
2023-05-17T02:41:20.320Z,11.77
2023-05-17T02:41:32.908Z,11.68
2023-05-17T02:41:45.555Z,11.80
2023-05-17T02:41:59.516Z,12.05
2023-05-17T02:42:12.284Z,12.00
2023-05-17T02:42:24.873Z,11.65
2023-05-17T02:42:38.519Z,11.23
2023-05-17T02:42:51.115Z,11.15
2023-05-17T02:43:03.809Z,11.43
2023-05-17T02:43:16.337Z,11.63
2023-05-17T02:43:28.871Z,11.40
2023-05-17T02:43:41.666Z,11.18
2023-05-17T02:43:54.258Z,11.07
2023-05-17T02:44:08.132Z,11.50
2023-05-17T02:44:20.775Z,11.88
2023-05-17T02:44:33.332Z,11.98
2023-05-17T02:44:45.862Z,12.07
2023-05-17T02:44:58.373Z,12.00
2023-05-17T02:45:11.835Z,12.05
2023-05-17T02:45:24.418Z,12.25
2023-05-17T02:45:37.978Z,12.43
2023-05-17T02:45:50.542Z,12.48
2023-05-17T02:46:03.112Z,13.35
2023-05-17T02:46:15.890Z,14.25
2023-05-17T02:46:28.460Z,16.42
2023-05-17T02:46:40.988Z,17.58
2023-05-17T02:46:53.577Z,17.27
2023-05-17T02:47:07.479Z,17.05
2023-05-17T02:47:21.250Z,17.15
2023-05-17T02:47:33.951Z,18.00
2023-05-17T02:47:46.871Z,19.33
2023-05-17T02:47:59.496Z,20.35
2023-05-17T02:48:12.113Z,21.83
2023-05-17T02:48:24.678Z,23.30
2023-05-17T02:48:38.344Z,24.67
2023-05-17T02:48:50.893Z,24.63
2023-05-17T02:49:03.433Z,23.65
2023-05-17T02:49:16.048Z,22.88
2023-05-17T02:49:28.593Z,22.52
2023-05-17T02:49:41.122Z,22.23
2023-05-17T02:49:53.719Z,21.15
2023-05-17T02:50:08.039Z,20.30
2023-05-17T02:50:20.659Z,20.35
2023-05-17T02:50:33.208Z,19.90
2023-05-17T02:50:45.820Z,19.95
2023-05-17T02:50:58.377Z,19.52
2023-05-17T02:51:11.193Z,19.25
2023-05-17T02:51:25.031Z,19.10
2023-05-17T02:51:39.658Z,18.95
2023-05-17T02:51:52.215Z,18.38
2023-05-17T02:52:05.336Z,18.02
2023-05-17T02:52:17.924Z,18.25
2023-05-17T02:52:30.478Z,18.98
2023-05-17T02:52:44.014Z,19.38
2023-05-17T02:52:56.592Z,19.77
2023-05-17T02:53:09.153Z,18.95
2023-05-17T02:53:21.713Z,18.17
2023-05-17T02:53:34.272Z,18.17
2023-05-17T02:53:46.832Z,18.50
2023-05-17T02:53:59.421Z,19.35
2023-05-17T02:54:12.074Z,19.70
2023-05-17T02:54:24.660Z,19.67
2023-05-17T02:54:38.223Z,19.08
2023-05-17T02:54:51.628Z,18.75
2023-05-17T02:55:04.943Z,18.27
2023-05-17T02:55:18.013Z,18.20
2023-05-17T02:55:30.951Z,18.00
2023-05-17T02:55:43.577Z,17.52
2023-05-17T02:55:58.106Z,17.05
2023-05-17T02:56:12.096Z,16.88
2023-05-17T02:56:24.734Z,16.63
2023-05-17T02:56:37.259Z,16.33
2023-05-17T02:56:49.990Z,15.48
2023-05-17T02:57:04.462Z,14.43
2023-05-17T02:57:17.101Z,14.27
2023-05-17T02:57:29.694Z,14.30
2023-05-17T02:57:43.263Z,14.50
2023-05-17T02:57:55.859Z,14.15
2023-05-17T02:58:08.412Z,14.10
2023-05-17T02:58:21.010Z,14.02
2023-05-17T02:58:33.610Z,13.60
2023-05-17T02:58:46.396Z,13.40
2023-05-17T02:59:01.276Z,13.27
2023-05-17T02:59:14.388Z,13.02
2023-05-17T02:59:27.935Z,13.05
2023-05-17T02:59:40.500Z,12.85
2023-05-17T02:59:53.099Z,12.70
2023-05-17T03:00:07.029Z,12.43
2023-05-17T03:00:19.908Z,12.38
2023-05-17T03:00:32.585Z,12.40
2023-05-17T03:00:46.107Z,12.40
2023-05-17T03:00:59.654Z,11.98
2023-05-17T03:01:12.681Z,11.90
2023-05-17T03:01:25.446Z,11.38
2023-05-17T03:01:37.981Z,10.80
2023-05-17T03:01:50.711Z,10.55
2023-05-17T03:02:03.329Z,10.60
2023-05-17T03:02:15.976Z,11.05
2023-05-17T03:02:29.982Z,10.90
2023-05-17T03:02:42.736Z,10.93
2023-05-17T03:02:55.694Z,10.75
2023-05-17T03:03:08.414Z,10.55
2023-05-17T03:03:21.254Z,10.90
2023-05-17T03:03:33.969Z,11.00
2023-05-17T03:03:46.692Z,11.00